sensor_id;sensor_type;location;lat;lon;timestamp;temperature;humidity
47773;DHT22;33534;51.028;13.716;2022-07-19T00:01:28;18.50;57.30
47773;DHT22;33534;51.028;13.716;2022-07-19T00:03:56;18.50;57.50
47773;DHT22;33534;51.028;13.716;2022-07-19T00:06:23;18.40;57.40
47773;DHT22;33534;51.028;13.716;2022-07-19T00:08:49;18.20;57.90
47773;DHT22;33534;51.028;13.716;2022-07-19T00:11:14;18.20;58.10
47773;DHT22;33534;51.028;13.716;2022-07-19T00:13:40;18.20;57.90
47773;DHT22;33534;51.028;13.716;2022-07-19T00:16:05;18.20;58.40
47773;DHT22;33534;51.028;13.716;2022-07-19T00:18:31;18.00;58.40
47773;DHT22;33534;51.028;13.716;2022-07-19T00:20:56;17.90;58.60
47773;DHT22;33534;51.028;13.716;2022-07-19T00:23:22;17.90;58.80
47773;DHT22;33534;51.028;13.716;2022-07-19T00:25:48;18.00;58.60
47773;DHT22;33534;51.028;13.716;2022-07-19T00:28:13;18.00;58.60
47773;DHT22;33534;51.028;13.716;2022-07-19T00:30:39;18.00;58.80
47773;DHT22;33534;51.028;13.716;2022-07-19T00:33:05;17.90;59.20
47773;DHT22;33534;51.028;13.716;2022-07-19T00:35:35;17.90;59.20
47773;DHT22;33534;51.028;13.716;2022-07-19T00:38:05;17.90;59.20
47773;DHT22;33534;51.028;13.716;2022-07-19T00:40:31;18.00;59.20
47773;DHT22;33534;51.028;13.716;2022-07-19T00:42:57;17.90;59.30
47773;DHT22;33534;51.028;13.716;2022-07-19T00:45:22;17.90;59.70
47773;DHT22;33534;51.028;13.716;2022-07-19T00:47:48;17.90;59.60
47773;DHT22;33534;51.028;13.716;2022-07-19T00:50:14;17.80;59.70
47773;DHT22;33534;51.028;13.716;2022-07-19T00:52:40;17.70;59.90
47773;DHT22;33534;51.028;13.716;2022-07-19T00:55:08;17.70;60.10
47773;DHT22;33534;51.028;13.716;2022-07-19T00:57:36;17.70;59.90
47773;DHT22;33534;51.028;13.716;2022-07-19T01:00:05;17.70;60.00
47773;DHT22;33534;51.028;13.716;2022-07-19T01:02:31;17.70;59.90
47773;DHT22;33534;51.028;13.716;2022-07-19T01:04:57;17.70;59.60
47773;DHT22;33534;51.028;13.716;2022-07-19T01:07:24;17.70;59.90
47773;DHT22;33534;51.028;13.716;2022-07-19T01:09:51;17.70;60.10
47773;DHT22;33534;51.028;13.716;2022-07-19T01:12:17;17.70;60.10
47773;DHT22;33534;51.028;13.716;2022-07-19T01:14:43;17.70;59.80
47773;DHT22;33534;51.028;13.716;2022-07-19T01:17:09;17.70;60.00
47773;DHT22;33534;51.028;13.716;2022-07-19T01:19:35;17.70;59.60
47773;DHT22;33534;51.028;13.716;2022-07-19T01:22:01;17.70;59.90
47773;DHT22;33534;51.028;13.716;2022-07-19T01:24:27;17.70;60.10
47773;DHT22;33534;51.028;13.716;2022-07-19T01:26:53;17.60;59.90
47773;DHT22;33534;51.028;13.716;2022-07-19T01:29:18;17.60;60.10
47773;DHT22;33534;51.028;13.716;2022-07-19T01:31:44;17.60;60.00
47773;DHT22;33534;51.028;13.716;2022-07-19T01:34:09;17.60;60.30
47773;DHT22;33534;51.028;13.716;2022-07-19T01:36:35;17.50;60.40
47773;DHT22;33534;51.028;13.716;2022-07-19T01:39:01;17.50;60.60
47773;DHT22;33534;51.028;13.716;2022-07-19T01:41:27;17.50;60.90
47773;DHT22;33534;51.028;13.716;2022-07-19T01:43:52;17.50;61.20
47773;DHT22;33534;51.028;13.716;2022-07-19T01:46:18;17.40;61.20
47773;DHT22;33534;51.028;13.716;2022-07-19T01:48:43;17.40;60.90
47773;DHT22;33534;51.028;13.716;2022-07-19T01:51:09;17.30;60.30
47773;DHT22;33534;51.028;13.716;2022-07-19T01:53:34;17.40;60.30
47773;DHT22;33534;51.028;13.716;2022-07-19T01:56:04;17.40;60.00
47773;DHT22;33534;51.028;13.716;2022-07-19T01:58:29;17.40;60.30
47773;DHT22;33534;51.028;13.716;2022-07-19T02:00:55;17.50;59.70
47773;DHT22;33534;51.028;13.716;2022-07-19T02:03:20;17.40;60.10
47773;DHT22;33534;51.028;13.716;2022-07-19T02:05:46;17.50;61.20
47773;DHT22;33534;51.028;13.716;2022-07-19T02:08:12;17.40;60.80
47773;DHT22;33534;51.028;13.716;2022-07-19T02:10:38;17.40;60.10
47773;DHT22;33534;51.028;13.716;2022-07-19T02:13:04;17.40;59.60
47773;DHT22;33534;51.028;13.716;2022-07-19T02:15:29;17.50;59.60
47773;DHT22;33534;51.028;13.716;2022-07-19T02:17:55;17.40;59.70
47773;DHT22;33534;51.028;13.716;2022-07-19T02:20:21;17.50;60.90
47773;DHT22;33534;51.028;13.716;2022-07-19T02:22:47;17.30;59.60
47773;DHT22;33534;51.028;13.716;2022-07-19T02:25:13;17.40;60.80
47773;DHT22;33534;51.028;13.716;2022-07-19T02:27:40;17.30;61.50
47773;DHT22;33534;51.028;13.716;2022-07-19T02:30:06;17.30;59.80
47773;DHT22;33534;51.028;13.716;2022-07-19T02:32:32;17.30;60.50
47773;DHT22;33534;51.028;13.716;2022-07-19T02:34:57;17.20;61.00
47773;DHT22;33534;51.028;13.716;2022-07-19T02:37:23;17.20;61.40
47773;DHT22;33534;51.028;13.716;2022-07-19T02:39:48;17.20;61.40
47773;DHT22;33534;51.028;13.716;2022-07-19T02:42:14;17.20;60.00
47773;DHT22;33534;51.028;13.716;2022-07-19T02:44:39;17.10;61.10
47773;DHT22;33534;51.028;13.716;2022-07-19T02:47:05;17.20;60.90
47773;DHT22;33534;51.028;13.716;2022-07-19T02:49:31;17.20;59.60
47773;DHT22;33534;51.028;13.716;2022-07-19T02:51:56;17.20;59.90
47773;DHT22;33534;51.028;13.716;2022-07-19T02:54:22;17.20;60.30
47773;DHT22;33534;51.028;13.716;2022-07-19T02:56:47;17.10;59.90
47773;DHT22;33534;51.028;13.716;2022-07-19T02:59:13;17.20;59.90
47773;DHT22;33534;51.028;13.716;2022-07-19T03:01:39;17.10;61.20
47773;DHT22;33534;51.028;13.716;2022-07-19T03:04:04;17.10;60.50
47773;DHT22;33534;51.028;13.716;2022-07-19T03:06:30;17.00;61.50
47773;DHT22;33534;51.028;13.716;2022-07-19T03:08:56;17.00;61.70
47773;DHT22;33534;51.028;13.716;2022-07-19T03:11:22;17.00;61.80
47773;DHT22;33534;51.028;13.716;2022-07-19T03:13:47;17.00;62.10
47773;DHT22;33534;51.028;13.716;2022-07-19T03:16:13;17.00;62.00
47773;DHT22;33534;51.028;13.716;2022-07-19T03:18:39;16.90;61.70
47773;DHT22;33534;51.028;13.716;2022-07-19T03:21:05;17.00;61.60
47773;DHT22;33534;51.028;13.716;2022-07-19T03:23:32;17.00;61.60
47773;DHT22;33534;51.028;13.716;2022-07-19T03:25:58;17.00;61.90
47773;DHT22;33534;51.028;13.716;2022-07-19T03:28:24;17.00;61.70
47773;DHT22;33534;51.028;13.716;2022-07-19T03:30:49;17.10;61.90
47773;DHT22;33534;51.028;13.716;2022-07-19T03:33:15;17.10;61.80
47773;DHT22;33534;51.028;13.716;2022-07-19T03:35:45;17.10;62.00
47773;DHT22;33534;51.028;13.716;2022-07-19T03:38:12;17.20;61.70
47773;DHT22;33534;51.028;13.716;2022-07-19T03:40:38;17.30;61.70
47773;DHT22;33534;51.028;13.716;2022-07-19T03:43:04;17.40;61.60
47773;DHT22;33534;51.028;13.716;2022-07-19T03:45:30;17.50;61.30
47773;DHT22;33534;51.028;13.716;2022-07-19T03:47:56;17.80;60.10
47773;DHT22;33534;51.028;13.716;2022-07-19T03:50:21;18.50;58.40
47773;DHT22;33534;51.028;13.716;2022-07-19T03:52:47;19.30;55.20
47773;DHT22;33534;51.028;13.716;2022-07-19T03:55:12;20.00;52.80
47773;DHT22;33534;51.028;13.716;2022-07-19T03:57:38;20.70;50.10
47773;DHT22;33534;51.028;13.716;2022-07-19T04:00:05;21.70;49.10
47773;DHT22;33534;51.028;13.716;2022-07-19T04:02:31;22.60;47.30
47773;DHT22;33534;51.028;13.716;2022-07-19T04:04:57;23.40;45.00
47773;DHT22;33534;51.028;13.716;2022-07-19T04:07:23;24.20;43.20
47773;DHT22;33534;51.028;13.716;2022-07-19T04:09:48;25.00;42.40
47773;DHT22;33534;51.028;13.716;2022-07-19T04:12:14;25.60;40.30
47773;DHT22;33534;51.028;13.716;2022-07-19T04:14:39;25.60;40.10
47773;DHT22;33534;51.028;13.716;2022-07-19T04:17:05;25.90;38.70
47773;DHT22;33534;51.028;13.716;2022-07-19T04:19:31;25.80;39.00
47773;DHT22;33534;51.028;13.716;2022-07-19T04:21:57;26.10;38.40
47773;DHT22;33534;51.028;13.716;2022-07-19T04:24:23;26.00;36.90
47773;DHT22;33534;51.028;13.716;2022-07-19T04:26:48;26.00;36.90
47773;DHT22;33534;51.028;13.716;2022-07-19T04:29:16;26.00;36.50
47773;DHT22;33534;51.028;13.716;2022-07-19T04:31:42;26.00;36.40
47773;DHT22;33534;51.028;13.716;2022-07-19T04:34:07;26.10;36.20
47773;DHT22;33534;51.028;13.716;2022-07-19T04:36:33;26.00;36.70
47773;DHT22;33534;51.028;13.716;2022-07-19T04:38:58;26.40;36.00
47773;DHT22;33534;51.028;13.716;2022-07-19T04:41:24;26.40;36.40
47773;DHT22;33534;51.028;13.716;2022-07-19T04:43:49;26.90;35.40
47773;DHT22;33534;51.028;13.716;2022-07-19T04:46:15;27.90;34.00
47773;DHT22;33534;51.028;13.716;2022-07-19T04:48:40;29.00;32.20
47773;DHT22;33534;51.028;13.716;2022-07-19T04:51:07;29.00;31.70
47773;DHT22;33534;51.028;13.716;2022-07-19T04:53:32;28.50;32.00
47773;DHT22;33534;51.028;13.716;2022-07-19T04:55:58;28.50;32.40
47773;DHT22;33534;51.028;13.716;2022-07-19T04:58:24;28.40;32.50
47773;DHT22;33534;51.028;13.716;2022-07-19T05:00:49;28.50;32.50
47773;DHT22;33534;51.028;13.716;2022-07-19T05:03:15;29.00;31.90
47773;DHT22;33534;51.028;13.716;2022-07-19T05:05:40;29.30;31.10
47773;DHT22;33534;51.028;13.716;2022-07-19T05:08:06;28.90;31.70
47773;DHT22;33534;51.028;13.716;2022-07-19T05:10:32;29.80;30.50
47773;DHT22;33534;51.028;13.716;2022-07-19T05:42:11;34.00;25.30
47773;DHT22;33534;51.028;13.716;2022-07-19T05:44:37;33.70;25.80
47773;DHT22;33534;51.028;13.716;2022-07-19T05:47:02;33.20;25.80
47773;DHT22;33534;51.028;13.716;2022-07-19T05:49:28;32.60;26.70
47773;DHT22;33534;51.028;13.716;2022-07-19T05:51:54;32.30;27.50
47773;DHT22;33534;51.028;13.716;2022-07-19T05:54:19;32.30;27.80
47773;DHT22;33534;51.028;13.716;2022-07-19T05:56:45;32.70;27.30
47773;DHT22;33534;51.028;13.716;2022-07-19T05:59:10;33.30;26.80
47773;DHT22;33534;51.028;13.716;2022-07-19T06:01:36;33.00;26.50
47773;DHT22;33534;51.028;13.716;2022-07-19T06:04:02;32.60;27.10
47773;DHT22;33534;51.028;13.716;2022-07-19T06:06:32;33.40;26.40
47773;DHT22;33534;51.028;13.716;2022-07-19T06:08:59;33.00;26.50
47773;DHT22;33534;51.028;13.716;2022-07-19T06:11:26;33.40;26.10
47773;DHT22;33534;51.028;13.716;2022-07-19T06:13:52;32.90;26.70
47773;DHT22;33534;51.028;13.716;2022-07-19T06:16:18;32.80;26.70
47773;DHT22;33534;51.028;13.716;2022-07-19T06:18:44;32.80;27.00
47773;DHT22;33534;51.028;13.716;2022-07-19T06:21:12;32.30;27.30
47773;DHT22;33534;51.028;13.716;2022-07-19T06:23:38;32.90;27.00
47773;DHT22;33534;51.028;13.716;2022-07-19T06:26:06;33.30;26.50
47773;DHT22;33534;51.028;13.716;2022-07-19T06:28:32;33.20;26.60
47773;DHT22;33534;51.028;13.716;2022-07-19T06:30:58;33.70;26.30
47773;DHT22;33534;51.028;13.716;2022-07-19T06:33:24;33.90;26.00
47773;DHT22;33534;51.028;13.716;2022-07-19T06:48:00;37.50;22.40
47773;DHT22;33534;51.028;13.716;2022-07-19T06:50:26;37.90;22.20
47773;DHT22;33534;51.028;13.716;2022-07-19T06:52:51;37.20;22.80
47773;DHT22;33534;51.028;13.716;2022-07-19T06:55:17;37.90;22.10
47773;DHT22;33534;51.028;13.716;2022-07-19T06:57:43;38.30;21.60
47773;DHT22;33534;51.028;13.716;2022-07-19T07:00:09;37.80;22.10
47773;DHT22;33534;51.028;13.716;2022-07-19T07:02:41;37.40;22.30
47773;DHT22;33534;51.028;13.716;2022-07-19T07:56:19;38.60;21.00
47773;DHT22;33534;51.028;13.716;2022-07-19T07:58:44;38.30;21.40
47773;DHT22;33534;51.028;13.716;2022-07-19T08:01:10;38.50;21.40
47773;DHT22;33534;51.028;13.716;2022-07-19T08:03:36;38.80;20.60
47773;DHT22;33534;51.028;13.716;2022-07-19T08:06:01;39.00;20.20
47773;DHT22;33534;51.028;13.716;2022-07-19T08:08:27;38.50;20.70
47773;DHT22;33534;51.028;13.716;2022-07-19T08:10:54;39.00;20.40
47773;DHT22;33534;51.028;13.716;2022-07-19T08:13:20;39.50;20.10
47773;DHT22;33534;51.028;13.716;2022-07-19T08:15:46;39.80;19.40
47773;DHT22;33534;51.028;13.716;2022-07-19T08:18:12;40.10;19.40
47773;DHT22;33534;51.028;13.716;2022-07-19T08:20:37;40.60;18.50
47773;DHT22;33534;51.028;13.716;2022-07-19T08:23:03;40.80;19.50
47773;DHT22;33534;51.028;13.716;2022-07-19T08:25:29;40.00;19.20
47773;DHT22;33534;51.028;13.716;2022-07-19T08:27:55;39.70;19.40
47773;DHT22;33534;51.028;13.716;2022-07-19T08:30:20;38.80;20.20
47773;DHT22;33534;51.028;13.716;2022-07-19T08:32:46;38.40;20.30
47773;DHT22;33534;51.028;13.716;2022-07-19T08:35:12;38.90;19.90
47773;DHT22;33534;51.028;13.716;2022-07-19T08:37:38;38.80;20.00
47773;DHT22;33534;51.028;13.716;2022-07-19T08:40:05;37.80;20.50
47773;DHT22;33534;51.028;13.716;2022-07-19T08:42:31;36.70;21.10
47773;DHT22;33534;51.028;13.716;2022-07-19T08:45:00;37.20;20.90
47773;DHT22;33534;51.028;13.716;2022-07-19T08:47:27;37.80;20.30
47773;DHT22;33534;51.028;13.716;2022-07-19T08:49:53;38.70;19.20
47773;DHT22;33534;51.028;13.716;2022-07-19T08:52:19;40.10;18.40
47773;DHT22;33534;51.028;13.716;2022-07-19T08:54:45;39.70;18.10
47773;DHT22;33534;51.028;13.716;2022-07-19T08:57:11;38.90;18.50
47773;DHT22;33534;51.028;13.716;2022-07-19T08:59:55;39.60;18.30
47773;DHT22;33534;51.028;13.716;2022-07-19T09:02:21;38.70;18.30
47773;DHT22;33534;51.028;13.716;2022-07-19T09:05:00;37.90;19.10
47773;DHT22;33534;51.028;13.716;2022-07-19T09:07:26;38.40;18.60
47773;DHT22;33534;51.028;13.716;2022-07-19T09:09:52;38.10;19.20
47773;DHT22;33534;51.028;13.716;2022-07-19T09:12:17;37.80;19.20
47773;DHT22;33534;51.028;13.716;2022-07-19T09:14:53;37.90;19.30
47773;DHT22;33534;51.028;13.716;2022-07-19T09:17:19;39.10;18.60
47773;DHT22;33534;51.028;13.716;2022-07-19T09:19:47;40.40;16.80
47773;DHT22;33534;51.028;13.716;2022-07-19T09:22:15;41.20;16.60
47773;DHT22;33534;51.028;13.716;2022-07-19T09:27:10;39.40;17.30
47773;DHT22;33534;51.028;13.716;2022-07-19T09:29:42;38.00;18.80
47773;DHT22;33534;51.028;13.716;2022-07-19T09:32:14;37.70;19.00
47773;DHT22;33534;51.028;13.716;2022-07-19T09:35:02;37.40;19.30
47773;DHT22;33534;51.028;13.716;2022-07-19T09:37:33;38.20;18.80
47773;DHT22;33534;51.028;13.716;2022-07-19T09:40:05;37.30;18.90
47773;DHT22;33534;51.028;13.716;2022-07-19T09:42:37;37.70;18.70
47773;DHT22;33534;51.028;13.716;2022-07-19T09:45:05;37.60;18.70
47773;DHT22;33534;51.028;13.716;2022-07-19T09:47:33;36.90;19.50
47773;DHT22;33534;51.028;13.716;2022-07-19T09:50:04;37.40;19.20
47773;DHT22;33534;51.028;13.716;2022-07-19T09:52:30;37.60;19.20
47773;DHT22;33534;51.028;13.716;2022-07-19T09:54:58;38.30;19.20
47773;DHT22;33534;51.028;13.716;2022-07-19T09:57:26;38.90;18.50
47773;DHT22;33534;51.028;13.716;2022-07-19T09:59:52;39.80;17.80
47773;DHT22;33534;51.028;13.716;2022-07-19T10:02:22;39.80;17.80
47773;DHT22;33534;51.028;13.716;2022-07-19T10:04:49;39.20;17.90
47773;DHT22;33534;51.028;13.716;2022-07-19T10:07:16;38.70;17.90
47773;DHT22;33534;51.028;13.716;2022-07-19T10:09:41;37.00;18.90
47773;DHT22;33534;51.028;13.716;2022-07-19T10:12:09;35.80;20.20
47773;DHT22;33534;51.028;13.716;2022-07-19T10:14:36;35.30;20.60
47773;DHT22;33534;51.028;13.716;2022-07-19T10:19:51;35.10;20.90
47773;DHT22;33534;51.028;13.716;2022-07-19T10:22:20;35.90;21.10
47773;DHT22;33534;51.028;13.716;2022-07-19T10:24:50;35.90;20.70
47773;DHT22;33534;51.028;13.716;2022-07-19T10:32:29;36.80;20.70
47773;DHT22;33534;51.028;13.716;2022-07-19T10:37:53;37.00;20.00
47773;DHT22;33534;51.028;13.716;2022-07-19T10:43:07;36.60;20.50
47773;DHT22;33534;51.028;13.716;2022-07-19T10:45:33;35.90;20.10
47773;DHT22;33534;51.028;13.716;2022-07-19T10:48:01;35.80;20.60
47773;DHT22;33534;51.028;13.716;2022-07-19T10:53:10;34.40;21.70
47773;DHT22;33534;51.028;13.716;2022-07-19T10:55:36;33.90;21.90
47773;DHT22;33534;51.028;13.716;2022-07-19T10:58:09;33.50;22.40
47773;DHT22;33534;51.028;13.716;2022-07-19T11:00:46;33.40;22.20
47773;DHT22;33534;51.028;13.716;2022-07-19T11:08:14;33.90;23.60
47773;DHT22;33534;51.028;13.716;2022-07-19T11:10:39;34.20;23.10
47773;DHT22;33534;51.028;13.716;2022-07-19T11:13:05;34.40;22.50
47773;DHT22;33534;51.028;13.716;2022-07-19T11:15:31;34.40;21.60
47773;DHT22;33534;51.028;13.716;2022-07-19T11:18:07;34.10;22.10
47773;DHT22;33534;51.028;13.716;2022-07-19T11:20:34;34.10;21.90
47773;DHT22;33534;51.028;13.716;2022-07-19T11:23:02;34.20;22.10
47773;DHT22;33534;51.028;13.716;2022-07-19T11:25:36;34.00;22.00
47773;DHT22;33534;51.028;13.716;2022-07-19T11:28:02;33.90;22.00
47773;DHT22;33534;51.028;13.716;2022-07-19T11:30:30;33.90;22.30
47773;DHT22;33534;51.028;13.716;2022-07-19T11:33:02;33.70;22.10
47773;DHT22;33534;51.028;13.716;2022-07-19T11:35:28;33.50;23.00
47773;DHT22;33534;51.028;13.716;2022-07-19T11:37:56;33.80;22.90
47773;DHT22;33534;51.028;13.716;2022-07-19T11:40:23;33.80;22.10
47773;DHT22;33534;51.028;13.716;2022-07-19T11:42:49;34.00;22.40
47773;DHT22;33534;51.028;13.716;2022-07-19T11:47:46;34.00;21.50
47773;DHT22;33534;51.028;13.716;2022-07-19T11:50:14;33.90;22.30
47773;DHT22;33534;51.028;13.716;2022-07-19T11:52:55;34.00;22.10
47773;DHT22;33534;51.028;13.716;2022-07-19T11:55:33;34.00;21.40
47773;DHT22;33534;51.028;13.716;2022-07-19T11:57:59;34.00;21.50
47773;DHT22;33534;51.028;13.716;2022-07-19T12:00:25;33.90;21.00
47773;DHT22;33534;51.028;13.716;2022-07-19T12:05:16;33.50;21.70
47773;DHT22;33534;51.028;13.716;2022-07-19T12:07:49;33.60;21.90
47773;DHT22;33534;51.028;13.716;2022-07-19T12:10:46;33.80;21.40
47773;DHT22;33534;51.028;13.716;2022-07-19T12:13:28;33.90;21.20
47773;DHT22;33534;51.028;13.716;2022-07-19T12:15:55;33.80;21.40
47773;DHT22;33534;51.028;13.716;2022-07-19T12:21:26;33.70;21.20
47773;DHT22;33534;51.028;13.716;2022-07-19T12:29:36;33.90;21.20
47773;DHT22;33534;51.028;13.716;2022-07-19T12:32:06;33.90;21.20
47773;DHT22;33534;51.028;13.716;2022-07-19T12:34:48;33.90;20.90
47773;DHT22;33534;51.028;13.716;2022-07-19T12:37:30;34.00;21.40
47773;DHT22;33534;51.028;13.716;2022-07-19T12:43:00;33.70;21.10
47773;DHT22;33534;51.028;13.716;2022-07-19T12:45:34;33.90;21.20
47773;DHT22;33534;51.028;13.716;2022-07-19T12:48:00;34.00;20.80
47773;DHT22;33534;51.028;13.716;2022-07-19T12:50:31;34.00;20.50
47773;DHT22;33534;51.028;13.716;2022-07-19T12:52:59;34.10;20.90
47773;DHT22;33534;51.028;13.716;2022-07-19T12:55:27;33.90;20.30
47773;DHT22;33534;51.028;13.716;2022-07-19T12:57:54;33.80;20.50
47773;DHT22;33534;51.028;13.716;2022-07-19T13:00:21;33.80;20.60
47773;DHT22;33534;51.028;13.716;2022-07-19T13:02:48;33.90;20.30
47773;DHT22;33534;51.028;13.716;2022-07-19T13:05:14;33.90;20.80
47773;DHT22;33534;51.028;13.716;2022-07-19T13:07:40;34.20;21.10
47773;DHT22;33534;51.028;13.716;2022-07-19T13:10:06;34.30;21.40
47773;DHT22;33534;51.028;13.716;2022-07-19T13:12:32;34.20;20.90
47773;DHT22;33534;51.028;13.716;2022-07-19T13:14:58;34.20;20.70
47773;DHT22;33534;51.028;13.716;2022-07-19T13:17:24;34.30;21.10
47773;DHT22;33534;51.028;13.716;2022-07-19T13:19:50;34.40;21.60
47773;DHT22;33534;51.028;13.716;2022-07-19T13:22:16;34.40;20.80
47773;DHT22;33534;51.028;13.716;2022-07-19T13:24:41;34.20;20.60
47773;DHT22;33534;51.028;13.716;2022-07-19T13:27:07;34.10;20.50
47773;DHT22;33534;51.028;13.716;2022-07-19T13:29:32;34.00;20.80
47773;DHT22;33534;51.028;13.716;2022-07-19T13:31:59;34.00;20.30
47773;DHT22;33534;51.028;13.716;2022-07-19T13:34:24;34.00;20.20
47773;DHT22;33534;51.028;13.716;2022-07-19T13:36:51;34.10;20.40
47773;DHT22;33534;51.028;13.716;2022-07-19T13:39:17;34.00;20.40
47773;DHT22;33534;51.028;13.716;2022-07-19T13:41:42;33.90;20.40
47773;DHT22;33534;51.028;13.716;2022-07-19T13:44:08;34.00;20.40
47773;DHT22;33534;51.028;13.716;2022-07-19T13:46:35;34.00;20.50
47773;DHT22;33534;51.028;13.716;2022-07-19T13:49:01;34.20;20.30
47773;DHT22;33534;51.028;13.716;2022-07-19T13:51:26;34.20;20.90
47773;DHT22;33534;51.028;13.716;2022-07-19T13:53:52;34.20;20.50
47773;DHT22;33534;51.028;13.716;2022-07-19T13:56:23;34.30;20.90
47773;DHT22;33534;51.028;13.716;2022-07-19T13:58:49;34.40;21.30
47773;DHT22;33534;51.028;13.716;2022-07-19T14:01:15;34.40;20.70
47773;DHT22;33534;51.028;13.716;2022-07-19T14:03:41;34.40;20.90
47773;DHT22;33534;51.028;13.716;2022-07-19T14:06:07;34.40;20.40
47773;DHT22;33534;51.028;13.716;2022-07-19T14:08:33;34.30;20.30
47773;DHT22;33534;51.028;13.716;2022-07-19T14:10:59;34.20;20.40
47773;DHT22;33534;51.028;13.716;2022-07-19T14:13:25;34.30;20.80
47773;DHT22;33534;51.028;13.716;2022-07-19T14:15:51;34.30;20.50
47773;DHT22;33534;51.028;13.716;2022-07-19T14:18:17;34.30;20.60
47773;DHT22;33534;51.028;13.716;2022-07-19T14:20:43;34.30;20.20
47773;DHT22;33534;51.028;13.716;2022-07-19T14:23:10;34.30;20.10
47773;DHT22;33534;51.028;13.716;2022-07-19T14:25:36;34.20;20.20
47773;DHT22;33534;51.028;13.716;2022-07-19T14:28:02;34.30;20.30
47773;DHT22;33534;51.028;13.716;2022-07-19T14:30:28;34.20;20.10
47773;DHT22;33534;51.028;13.716;2022-07-19T14:32:53;34.20;20.10
47773;DHT22;33534;51.028;13.716;2022-07-19T14:35:19;34.10;20.10
47773;DHT22;33534;51.028;13.716;2022-07-19T14:37:45;34.00;20.20
47773;DHT22;33534;51.028;13.716;2022-07-19T14:40:12;34.10;20.30
47773;DHT22;33534;51.028;13.716;2022-07-19T14:42:38;34.20;20.40
47773;DHT22;33534;51.028;13.716;2022-07-19T14:45:05;34.30;20.40
47773;DHT22;33534;51.028;13.716;2022-07-19T14:47:32;34.30;20.40
47773;DHT22;33534;51.028;13.716;2022-07-19T14:49:58;34.20;20.00
47773;DHT22;33534;51.028;13.716;2022-07-19T14:52:24;34.00;20.20
47773;DHT22;33534;51.028;13.716;2022-07-19T14:54:49;34.10;20.30
47773;DHT22;33534;51.028;13.716;2022-07-19T14:57:15;34.20;20.40
47773;DHT22;33534;51.028;13.716;2022-07-19T14:59:40;34.10;20.30
47773;DHT22;33534;51.028;13.716;2022-07-19T15:02:06;34.20;20.20
47773;DHT22;33534;51.028;13.716;2022-07-19T15:04:34;34.20;20.30
47773;DHT22;33534;51.028;13.716;2022-07-19T15:07:00;34.20;20.90
47773;DHT22;33534;51.028;13.716;2022-07-19T15:09:25;34.20;20.10
47773;DHT22;33534;51.028;13.716;2022-07-19T15:11:51;34.20;20.30
47773;DHT22;33534;51.028;13.716;2022-07-19T15:14:17;34.20;20.00
47773;DHT22;33534;51.028;13.716;2022-07-19T15:16:42;34.10;20.30
47773;DHT22;33534;51.028;13.716;2022-07-19T15:19:08;34.20;20.20
47773;DHT22;33534;51.028;13.716;2022-07-19T15:21:34;34.20;20.30
47773;DHT22;33534;51.028;13.716;2022-07-19T15:24:03;34.10;20.10
47773;DHT22;33534;51.028;13.716;2022-07-19T15:26:29;34.10;20.30
47773;DHT22;33534;51.028;13.716;2022-07-19T15:28:55;34.20;20.30
47773;DHT22;33534;51.028;13.716;2022-07-19T15:31:21;34.20;20.20
47773;DHT22;33534;51.028;13.716;2022-07-19T15:33:46;34.20;20.10
47773;DHT22;33534;51.028;13.716;2022-07-19T15:36:12;34.20;20.30
47773;DHT22;33534;51.028;13.716;2022-07-19T15:38:38;34.20;20.70
47773;DHT22;33534;51.028;13.716;2022-07-19T15:41:04;34.10;20.20
47773;DHT22;33534;51.028;13.716;2022-07-19T15:43:30;34.20;20.70
47773;DHT22;33534;51.028;13.716;2022-07-19T15:45:56;34.20;20.40
47773;DHT22;33534;51.028;13.716;2022-07-19T15:48:21;34.10;19.90
47773;DHT22;33534;51.028;13.716;2022-07-19T15:50:47;33.90;20.20
47773;DHT22;33534;51.028;13.716;2022-07-19T15:53:12;33.90;20.30
47773;DHT22;33534;51.028;13.716;2022-07-19T15:55:38;33.90;20.10
47773;DHT22;33534;51.028;13.716;2022-07-19T15:58:04;33.90;20.50
47773;DHT22;33534;51.028;13.716;2022-07-19T16:00:29;33.90;20.40
47773;DHT22;33534;51.028;13.716;2022-07-19T16:02:59;33.90;20.30
47773;DHT22;33534;51.028;13.716;2022-07-19T16:05:25;33.90;20.10
47773;DHT22;33534;51.028;13.716;2022-07-19T16:07:50;33.90;20.20
47773;DHT22;33534;51.028;13.716;2022-07-19T16:10:16;33.90;20.50
47773;DHT22;33534;51.028;13.716;2022-07-19T16:12:42;33.90;20.90
47773;DHT22;33534;51.028;13.716;2022-07-19T16:15:08;33.90;21.10
47773;DHT22;33534;51.028;13.716;2022-07-19T16:17:34;33.80;21.40
47773;DHT22;33534;51.028;13.716;2022-07-19T16:20:00;33.80;21.60
47773;DHT22;33534;51.028;13.716;2022-07-19T16:22:26;33.70;21.70
47773;DHT22;33534;51.028;13.716;2022-07-19T16:24:52;33.70;21.70
47773;DHT22;33534;51.028;13.716;2022-07-19T16:27:19;33.70;21.40
47773;DHT22;33534;51.028;13.716;2022-07-19T16:29:44;33.80;21.00
47773;DHT22;33534;51.028;13.716;2022-07-19T16:32:10;33.90;21.20
47773;DHT22;33534;51.028;13.716;2022-07-19T16:34:37;33.80;20.50
47773;DHT22;33534;51.028;13.716;2022-07-19T16:37:03;33.80;20.60
47773;DHT22;33534;51.028;13.716;2022-07-19T16:39:32;33.80;20.30
47773;DHT22;33534;51.028;13.716;2022-07-19T16:41:58;33.70;20.40
47773;DHT22;33534;51.028;13.716;2022-07-19T16:44:23;33.70;20.50
47773;DHT22;33534;51.028;13.716;2022-07-19T16:46:49;33.70;20.70
47773;DHT22;33534;51.028;13.716;2022-07-19T16:49:15;33.60;20.50
47773;DHT22;33534;51.028;13.716;2022-07-19T16:51:40;33.60;20.40
47773;DHT22;33534;51.028;13.716;2022-07-19T16:54:06;33.60;20.80
47773;DHT22;33534;51.028;13.716;2022-07-19T16:56:32;33.60;20.70
47773;DHT22;33534;51.028;13.716;2022-07-19T16:58:57;33.70;20.90
47773;DHT22;33534;51.028;13.716;2022-07-19T17:01:23;33.70;20.60
47773;DHT22;33534;51.028;13.716;2022-07-19T17:03:48;33.70;20.90
47773;DHT22;33534;51.028;13.716;2022-07-19T17:06:14;33.60;21.00
47773;DHT22;33534;51.028;13.716;2022-07-19T17:08:40;33.50;21.00
47773;DHT22;33534;51.028;13.716;2022-07-19T17:11:05;33.50;20.60
47773;DHT22;33534;51.028;13.716;2022-07-19T17:13:31;33.50;20.40
47773;DHT22;33534;51.028;13.716;2022-07-19T17:15:57;33.40;21.40
47773;DHT22;33534;51.028;13.716;2022-07-19T17:18:23;33.30;27.10
47773;DHT22;33534;51.028;13.716;2022-07-19T17:20:49;32.90;29.80
47773;DHT22;33534;51.028;13.716;2022-07-19T17:23:14;32.70;30.30
47773;DHT22;33534;51.028;13.716;2022-07-19T17:25:40;32.30;31.20